sensor_id;sensor_type;location;lat;lon;timestamp;P1;durP1;ratioP1;P2;durP2;ratioP2
18997;SDS011;9632;51.018;4.284;2023-03-21T00:01:55;13.40;;;4.88;;
18997;SDS011;9632;51.018;4.284;2023-03-21T00:04:25;14.68;;;5.35;;
18997;SDS011;9632;51.018;4.284;2023-03-21T00:06:51;14.65;;;5.43;;
18997;SDS011;9632;51.018;4.284;2023-03-21T00:09:17;13.02;;;5.20;;
18997;SDS011;9632;51.018;4.284;2023-03-21T00:11:43;14.90;;;5.47;;
18997;SDS011;9632;51.018;4.284;2023-03-21T00:14:09;15.73;;;5.55;;
18997;SDS011;9632;51.018;4.284;2023-03-21T00:16:38;11.45;;;4.90;;
18997;SDS011;9632;51.018;4.284;2023-03-21T00:19:04;14.40;;;5.20;;
18997;SDS011;9632;51.018;4.284;2023-03-21T00:21:30;13.07;;;5.07;;
18997;SDS011;9632;51.018;4.284;2023-03-21T00:23:57;13.38;;;5.03;;
18997;SDS011;9632;51.018;4.284;2023-03-21T00:26:24;10.55;;;4.70;;
18997;SDS011;9632;51.018;4.284;2023-03-21T00:28:51;11.90;;;4.57;;
18997;SDS011;9632;51.018;4.284;2023-03-21T00:31:17;12.32;;;4.90;;
18997;SDS011;9632;51.018;4.284;2023-03-21T00:33:43;12.45;;;4.65;;
18997;SDS011;9632;51.018;4.284;2023-03-21T00:36:09;11.48;;;4.72;;
18997;SDS011;9632;51.018;4.284;2023-03-21T00:38:36;12.43;;;4.95;;
18997;SDS011;9632;51.018;4.284;2023-03-21T00:41:03;10.80;;;4.55;;
18997;SDS011;9632;51.018;4.284;2023-03-21T00:43:30;10.75;;;4.57;;
18997;SDS011;9632;51.018;4.284;2023-03-21T00:45:57;12.25;;;4.90;;
18997;SDS011;9632;51.018;4.284;2023-03-21T00:48:23;13.15;;;4.50;;
18997;SDS011;9632;51.018;4.284;2023-03-21T00:50:51;13.60;;;4.78;;
18997;SDS011;9632;51.018;4.284;2023-03-21T00:53:18;13.93;;;5.05;;
18997;SDS011;9632;51.018;4.284;2023-03-21T00:55:45;12.20;;;4.82;;
18997;SDS011;9632;51.018;4.284;2023-03-21T00:58:11;10.85;;;4.50;;
18997;SDS011;9632;51.018;4.284;2023-03-21T01:00:37;8.95;;;4.30;;
18997;SDS011;9632;51.018;4.284;2023-03-21T01:03:07;10.88;;;4.78;;
18997;SDS011;9632;51.018;4.284;2023-03-21T01:05:38;11.93;;;4.35;;
18997;SDS011;9632;51.018;4.284;2023-03-21T01:08:25;13.80;;;4.72;;
18997;SDS011;9632;51.018;4.284;2023-03-21T01:10:52;11.15;;;4.18;;
18997;SDS011;9632;51.018;4.284;2023-03-21T01:13:19;9.23;;;4.47;;
18997;SDS011;9632;51.018;4.284;2023-03-21T01:15:50;10.63;;;4.40;;
18997;SDS011;9632;51.018;4.284;2023-03-21T01:18:18;14.00;;;5.05;;
18997;SDS011;9632;51.018;4.284;2023-03-21T01:20:45;13.35;;;4.55;;
18997;SDS011;9632;51.018;4.284;2023-03-21T01:23:12;11.52;;;4.63;;
18997;SDS011;9632;51.018;4.284;2023-03-21T01:25:39;14.63;;;5.20;;
18997;SDS011;9632;51.018;4.284;2023-03-21T01:28:05;11.23;;;4.80;;
18997;SDS011;9632;51.018;4.284;2023-03-21T01:30:31;15.55;;;5.50;;
18997;SDS011;9632;51.018;4.284;2023-03-21T01:32:57;12.43;;;4.90;;
18997;SDS011;9632;51.018;4.284;2023-03-21T01:35:23;15.40;;;5.30;;
18997;SDS011;9632;51.018;4.284;2023-03-21T01:37:49;12.60;;;4.60;;
18997;SDS011;9632;51.018;4.284;2023-03-21T01:40:16;12.75;;;5.10;;
18997;SDS011;9632;51.018;4.284;2023-03-21T01:42:47;15.02;;;5.07;;
18997;SDS011;9632;51.018;4.284;2023-03-21T01:48:16;15.70;;;4.75;;
18997;SDS011;9632;51.018;4.284;2023-03-21T01:50:43;16.27;;;4.75;;
18997;SDS011;9632;51.018;4.284;2023-03-21T01:53:10;12.88;;;5.20;;
18997;SDS011;9632;51.018;4.284;2023-03-21T01:55:36;15.68;;;4.55;;
18997;SDS011;9632;51.018;4.284;2023-03-21T01:58:03;18.02;;;4.80;;
18997;SDS011;9632;51.018;4.284;2023-03-21T02:00:30;13.95;;;4.43;;
18997;SDS011;9632;51.018;4.284;2023-03-21T02:02:57;14.30;;;5.00;;
18997;SDS011;9632;51.018;4.284;2023-03-21T02:05:49;14.82;;;4.72;;
18997;SDS011;9632;51.018;4.284;2023-03-21T02:08:21;19.15;;;5.78;;
18997;SDS011;9632;51.018;4.284;2023-03-21T02:10:47;15.45;;;4.95;;
18997;SDS011;9632;51.018;4.284;2023-03-21T02:13:14;16.88;;;5.47;;
18997;SDS011;9632;51.018;4.284;2023-03-21T02:15:41;17.58;;;5.20;;
18997;SDS011;9632;51.018;4.284;2023-03-21T02:27:22;17.67;;;4.97;;
18997;SDS011;9632;51.018;4.284;2023-03-21T02:38:36;17.80;;;5.25;;
18997;SDS011;9632;51.018;4.284;2023-03-21T02:41:16;18.73;;;5.28;;
18997;SDS011;9632;51.018;4.284;2023-03-21T02:46:48;12.38;;;4.65;;
18997;SDS011;9632;51.018;4.284;2023-03-21T02:49:35;14.05;;;4.57;;
18997;SDS011;9632;51.018;4.284;2023-03-21T02:52:28;14.80;;;4.57;;
18997;SDS011;9632;51.018;4.284;2023-03-21T02:54:57;14.07;;;5.03;;
18997;SDS011;9632;51.018;4.284;2023-03-21T02:57:28;13.35;;;4.50;;
18997;SDS011;9632;51.018;4.284;2023-03-21T02:59:55;16.08;;;5.32;;
18997;SDS011;9632;51.018;4.284;2023-03-21T03:02:22;13.07;;;4.57;;
18997;SDS011;9632;51.018;4.284;2023-03-21T03:04:52;12.10;;;4.28;;
18997;SDS011;9632;51.018;4.284;2023-03-21T03:07:30;15.75;;;4.75;;
18997;SDS011;9632;51.018;4.284;2023-03-21T03:12:58;14.63;;;5.03;;
18997;SDS011;9632;51.018;4.284;2023-03-21T03:23:56;14.48;;;4.10;;
18997;SDS011;9632;51.018;4.284;2023-03-21T03:26:36;15.40;;;4.72;;
18997;SDS011;9632;51.018;4.284;2023-03-21T03:29:05;14.55;;;4.25;;
18997;SDS011;9632;51.018;4.284;2023-03-21T03:31:34;9.85;;;3.95;;
18997;SDS011;9632;51.018;4.284;2023-03-21T03:34:13;13.25;;;4.20;;
18997;SDS011;9632;51.018;4.284;2023-03-21T03:36:45;14.95;;;4.18;;
18997;SDS011;9632;51.018;4.284;2023-03-21T03:39:15;15.63;;;4.30;;
18997;SDS011;9632;51.018;4.284;2023-03-21T03:41:46;13.13;;;4.13;;
18997;SDS011;9632;51.018;4.284;2023-03-21T03:44:20;15.02;;;4.40;;
18997;SDS011;9632;51.018;4.284;2023-03-21T03:46:55;15.75;;;4.70;;
18997;SDS011;9632;51.018;4.284;2023-03-21T03:49:30;18.23;;;4.68;;
18997;SDS011;9632;51.018;4.284;2023-03-21T03:52:02;18.05;;;4.70;;
18997;SDS011;9632;51.018;4.284;2023-03-21T03:54:38;16.63;;;5.05;;
18997;SDS011;9632;51.018;4.284;2023-03-21T03:57:07;18.20;;;5.13;;
18997;SDS011;9632;51.018;4.284;2023-03-21T03:59:36;16.02;;;5.20;;
18997;SDS011;9632;51.018;4.284;2023-03-21T04:02:03;15.45;;;5.07;;
18997;SDS011;9632;51.018;4.284;2023-03-21T04:04:28;19.92;;;5.07;;
18997;SDS011;9632;51.018;4.284;2023-03-21T04:06:55;16.20;;;5.35;;
18997;SDS011;9632;51.018;4.284;2023-03-21T04:09:22;20.23;;;5.68;;
18997;SDS011;9632;51.018;4.284;2023-03-21T04:11:49;14.80;;;4.95;;
18997;SDS011;9632;51.018;4.284;2023-03-21T04:14:14;19.35;;;5.80;;
18997;SDS011;9632;51.018;4.284;2023-03-21T04:16:40;16.92;;;5.97;;
18997;SDS011;9632;51.018;4.284;2023-03-21T04:19:06;21.98;;;6.97;;
18997;SDS011;9632;51.018;4.284;2023-03-21T04:21:32;16.42;;;5.40;;
18997;SDS011;9632;51.018;4.284;2023-03-21T04:23:58;19.40;;;5.82;;
18997;SDS011;9632;51.018;4.284;2023-03-21T04:26:24;20.30;;;5.82;;
18997;SDS011;9632;51.018;4.284;2023-03-21T04:28:51;17.33;;;5.53;;
18997;SDS011;9632;51.018;4.284;2023-03-21T04:31:17;17.00;;;5.45;;
18997;SDS011;9632;51.018;4.284;2023-03-21T04:33:43;17.08;;;5.78;;
18997;SDS011;9632;51.018;4.284;2023-03-21T04:36:09;15.20;;;5.55;;
18997;SDS011;9632;51.018;4.284;2023-03-21T04:38:51;18.75;;;5.90;;
18997;SDS011;9632;51.018;4.284;2023-03-21T04:41:17;21.58;;;5.95;;
18997;SDS011;9632;51.018;4.284;2023-03-21T04:43:43;16.42;;;5.50;;
18997;SDS011;9632;51.018;4.284;2023-03-21T04:46:09;25.08;;;6.43;;
18997;SDS011;9632;51.018;4.284;2023-03-21T04:48:35;17.77;;;5.80;;
18997;SDS011;9632;51.018;4.284;2023-03-21T04:51:01;15.35;;;5.60;;
18997;SDS011;9632;51.018;4.284;2023-03-21T04:53:27;19.58;;;6.35;;
18997;SDS011;9632;51.018;4.284;2023-03-21T04:55:53;19.50;;;6.10;;
18997;SDS011;9632;51.018;4.284;2023-03-21T04:58:18;16.08;;;6.00;;
18997;SDS011;9632;51.018;4.284;2023-03-21T05:00:44;15.43;;;5.65;;
18997;SDS011;9632;51.018;4.284;2023-03-21T05:03:10;14.02;;;5.75;;
18997;SDS011;9632;51.018;4.284;2023-03-21T05:05:43;22.23;;;6.88;;
18997;SDS011;9632;51.018;4.284;2023-03-21T05:08:10;22.83;;;6.60;;
18997;SDS011;9632;51.018;4.284;2023-03-21T05:10:37;16.65;;;5.90;;
18997;SDS011;9632;51.018;4.284;2023-03-21T05:13:02;14.70;;;5.93;;
18997;SDS011;9632;51.018;4.284;2023-03-21T05:15:28;19.35;;;6.32;;
18997;SDS011;9632;51.018;4.284;2023-03-21T05:17:54;21.88;;;7.20;;
18997;SDS011;9632;51.018;4.284;2023-03-21T05:20:22;16.25;;;6.57;;
18997;SDS011;9632;51.018;4.284;2023-03-21T05:22:48;18.38;;;6.38;;
18997;SDS011;9632;51.018;4.284;2023-03-21T05:25:15;15.18;;;6.15;;
18997;SDS011;9632;51.018;4.284;2023-03-21T05:27:42;18.75;;;6.38;;
18997;SDS011;9632;51.018;4.284;2023-03-21T05:30:14;16.40;;;6.03;;
18997;SDS011;9632;51.018;4.284;2023-03-21T05:32:40;14.40;;;6.15;;
18997;SDS011;9632;51.018;4.284;2023-03-21T05:35:06;24.05;;;7.25;;
18997;SDS011;9632;51.018;4.284;2023-03-21T05:37:32;18.20;;;6.97;;
18997;SDS011;9632;51.018;4.284;2023-03-21T05:40:00;15.52;;;6.20;;
18997;SDS011;9632;51.018;4.284;2023-03-21T05:42:25;21.60;;;7.00;;
18997;SDS011;9632;51.018;4.284;2023-03-21T05:44:51;22.10;;;6.43;;
18997;SDS011;9632;51.018;4.284;2023-03-21T05:47:17;19.95;;;6.10;;
18997;SDS011;9632;51.018;4.284;2023-03-21T05:49:43;15.77;;;6.28;;
18997;SDS011;9632;51.018;4.284;2023-03-21T05:52:10;19.33;;;6.95;;
18997;SDS011;9632;51.018;4.284;2023-03-21T05:54:36;19.92;;;7.00;;
18997;SDS011;9632;51.018;4.284;2023-03-21T05:57:02;21.13;;;7.57;;
18997;SDS011;9632;51.018;4.284;2023-03-21T05:59:28;18.98;;;6.82;;
18997;SDS011;9632;51.018;4.284;2023-03-21T06:01:54;21.70;;;7.35;;
18997;SDS011;9632;51.018;4.284;2023-03-21T06:04:20;16.63;;;7.25;;
18997;SDS011;9632;51.018;4.284;2023-03-21T06:06:45;21.25;;;7.40;;
18997;SDS011;9632;51.018;4.284;2023-03-21T06:09:11;22.50;;;7.38;;
18997;SDS011;9632;51.018;4.284;2023-03-21T06:11:37;18.52;;;6.30;;
18997;SDS011;9632;51.018;4.284;2023-03-21T06:14:08;19.42;;;6.47;;
18997;SDS011;9632;51.018;4.284;2023-03-21T06:16:33;16.65;;;6.57;;
18997;SDS011;9632;51.018;4.284;2023-03-21T06:18:59;18.75;;;6.45;;
18997;SDS011;9632;51.018;4.284;2023-03-21T06:21:25;18.83;;;6.57;;
18997;SDS011;9632;51.018;4.284;2023-03-21T06:23:50;16.60;;;6.60;;
18997;SDS011;9632;51.018;4.284;2023-03-21T06:26:16;15.52;;;6.60;;
18997;SDS011;9632;51.018;4.284;2023-03-21T06:28:47;17.25;;;6.13;;
18997;SDS011;9632;51.018;4.284;2023-03-21T06:31:16;17.10;;;6.72;;
18997;SDS011;9632;51.018;4.284;2023-03-21T06:33:42;17.88;;;6.25;;
18997;SDS011;9632;51.018;4.284;2023-03-21T06:36:08;19.80;;;6.43;;
18997;SDS011;9632;51.018;4.284;2023-03-21T06:38:34;17.27;;;6.35;;
18997;SDS011;9632;51.018;4.284;2023-03-21T06:41:02;19.95;;;6.57;;
18997;SDS011;9632;51.018;4.284;2023-03-21T06:43:29;16.45;;;6.80;;
18997;SDS011;9632;51.018;4.284;2023-03-21T06:45:56;17.20;;;6.57;;
18997;SDS011;9632;51.018;4.284;2023-03-21T06:48:22;23.95;;;6.75;;
18997;SDS011;9632;51.018;4.284;2023-03-21T06:50:48;19.15;;;6.72;;
18997;SDS011;9632;51.018;4.284;2023-03-21T06:53:14;18.67;;;6.30;;
18997;SDS011;9632;51.018;4.284;2023-03-21T06:55:40;17.80;;;7.13;;
18997;SDS011;9632;51.018;4.284;2023-03-21T06:58:06;21.02;;;6.18;;
18997;SDS011;9632;51.018;4.284;2023-03-21T07:00:32;18.13;;;6.43;;
18997;SDS011;9632;51.018;4.284;2023-03-21T07:02:58;18.83;;;6.32;;
18997;SDS011;9632;51.018;4.284;2023-03-21T07:05:24;15.43;;;6.68;;
18997;SDS011;9632;51.018;4.284;2023-03-21T07:07:51;17.55;;;6.03;;
18997;SDS011;9632;51.018;4.284;2023-03-21T07:10:16;14.98;;;6.55;;
18997;SDS011;9632;51.018;4.284;2023-03-21T07:12:42;20.67;;;6.85;;
18997;SDS011;9632;51.018;4.284;2023-03-21T07:15:08;16.48;;;6.35;;
18997;SDS011;9632;51.018;4.284;2023-03-21T07:17:34;17.70;;;6.28;;
18997;SDS011;9632;51.018;4.284;2023-03-21T07:20:00;29.90;;;10.45;;
18997;SDS011;9632;51.018;4.284;2023-03-21T07:22:30;17.58;;;7.13;;
18997;SDS011;9632;51.018;4.284;2023-03-21T07:24:56;13.52;;;5.78;;
18997;SDS011;9632;51.018;4.284;2023-03-21T07:27:21;21.38;;;6.00;;
18997;SDS011;9632;51.018;4.284;2023-03-21T07:29:47;13.95;;;6.30;;
18997;SDS011;9632;51.018;4.284;2023-03-21T07:32:14;15.40;;;6.15;;
18997;SDS011;9632;51.018;4.284;2023-03-21T07:34:40;18.38;;;7.20;;
18997;SDS011;9632;51.018;4.284;2023-03-21T07:37:06;18.73;;;7.50;;
18997;SDS011;9632;51.018;4.284;2023-03-21T07:39:31;25.10;;;10.27;;
18997;SDS011;9632;51.018;4.284;2023-03-21T07:41:58;20.73;;;7.60;;
18997;SDS011;9632;51.018;4.284;2023-03-21T07:44:24;17.38;;;6.15;;
18997;SDS011;9632;51.018;4.284;2023-03-21T07:46:50;18.73;;;5.45;;
18997;SDS011;9632;51.018;4.284;2023-03-21T07:49:16;16.77;;;5.47;;
18997;SDS011;9632;51.018;4.284;2023-03-21T07:51:41;14.48;;;5.18;;
18997;SDS011;9632;51.018;4.284;2023-03-21T07:54:07;15.15;;;4.85;;
18997;SDS011;9632;51.018;4.284;2023-03-21T07:56:33;18.13;;;4.93;;
18997;SDS011;9632;51.018;4.284;2023-03-21T07:58:59;14.77;;;4.60;;
18997;SDS011;9632;51.018;4.284;2023-03-21T08:01:24;13.55;;;4.57;;
18997;SDS011;9632;51.018;4.284;2023-03-21T08:03:50;14.60;;;4.38;;
18997;SDS011;9632;51.018;4.284;2023-03-21T08:06:18;12.68;;;4.38;;
18997;SDS011;9632;51.018;4.284;2023-03-21T08:08:44;15.45;;;4.45;;
18997;SDS011;9632;51.018;4.284;2023-03-21T08:11:10;14.35;;;4.57;;
18997;SDS011;9632;51.018;4.284;2023-03-21T08:13:36;12.48;;;4.10;;
18997;SDS011;9632;51.018;4.284;2023-03-21T08:16:02;9.30;;;3.67;;
18997;SDS011;9632;51.018;4.284;2023-03-21T08:18:28;13.65;;;4.20;;
18997;SDS011;9632;51.018;4.284;2023-03-21T08:20:54;12.70;;;3.83;;
18997;SDS011;9632;51.018;4.284;2023-03-21T08:23:21;12.88;;;4.28;;
18997;SDS011;9632;51.018;4.284;2023-03-21T08:25:53;11.20;;;3.75;;
18997;SDS011;9632;51.018;4.284;2023-03-21T08:28:22;12.70;;;4.00;;
18997;SDS011;9632;51.018;4.284;2023-03-21T08:30:49;15.52;;;4.00;;
18997;SDS011;9632;51.018;4.284;2023-03-21T08:33:14;13.57;;;4.18;;
18997;SDS011;9632;51.018;4.284;2023-03-21T08:35:42;13.95;;;4.30;;
18997;SDS011;9632;51.018;4.284;2023-03-21T08:38:08;16.48;;;4.40;;
18997;SDS011;9632;51.018;4.284;2023-03-21T08:40:34;13.05;;;4.03;;
18997;SDS011;9632;51.018;4.284;2023-03-21T08:43:00;15.65;;;4.35;;
18997;SDS011;9632;51.018;4.284;2023-03-21T08:45:26;9.95;;;3.55;;
18997;SDS011;9632;51.018;4.284;2023-03-21T08:47:52;12.52;;;4.10;;
18997;SDS011;9632;51.018;4.284;2023-03-21T08:50:19;11.43;;;4.00;;
18997;SDS011;9632;51.018;4.284;2023-03-21T08:52:47;11.13;;;3.55;;
18997;SDS011;9632;51.018;4.284;2023-03-21T08:55:14;9.77;;;3.72;;
18997;SDS011;9632;51.018;4.284;2023-03-21T08:57:41;12.63;;;3.65;;
18997;SDS011;9632;51.018;4.284;2023-03-21T09:00:08;17.23;;;3.90;;
18997;SDS011;9632;51.018;4.284;2023-03-21T09:02:42;15.93;;;4.07;;
18997;SDS011;9632;51.018;4.284;2023-03-21T09:05:09;8.00;;;3.25;;
18997;SDS011;9632;51.018;4.284;2023-03-21T09:07:36;13.02;;;3.72;;
18997;SDS011;9632;51.018;4.284;2023-03-21T09:10:04;14.13;;;4.20;;
18997;SDS011;9632;51.018;4.284;2023-03-21T09:12:31;12.23;;;3.72;;
18997;SDS011;9632;51.018;4.284;2023-03-21T09:14:57;9.85;;;3.78;;
18997;SDS011;9632;51.018;4.284;2023-03-21T09:17:23;9.50;;;3.55;;
18997;SDS011;9632;51.018;4.284;2023-03-21T09:19:49;10.25;;;3.50;;
18997;SDS011;9632;51.018;4.284;2023-03-21T09:22:17;8.20;;;3.30;;
18997;SDS011;9632;51.018;4.284;2023-03-21T09:24:47;13.70;;;3.28;;
18997;SDS011;9632;51.018;4.284;2023-03-21T09:27:14;9.98;;;3.35;;
18997;SDS011;9632;51.018;4.284;2023-03-21T09:29:42;11.63;;;3.33;;
18997;SDS011;9632;51.018;4.284;2023-03-21T09:32:08;10.45;;;4.00;;
18997;SDS011;9632;51.018;4.284;2023-03-21T09:34:36;13.48;;;4.20;;
18997;SDS011;9632;51.018;4.284;2023-03-21T09:37:06;14.27;;;4.05;;
18997;SDS011;9632;51.018;4.284;2023-03-21T09:39:40;10.85;;;4.07;;
18997;SDS011;9632;51.018;4.284;2023-03-21T09:50:03;13.32;;;3.58;;
18997;SDS011;9632;51.018;4.284;2023-03-21T09:55:32;15.15;;;4.60;;
18997;SDS011;9632;51.018;4.284;2023-03-21T09:58:08;14.80;;;4.80;;
18997;SDS011;9632;51.018;4.284;2023-03-21T10:00:50;11.82;;;3.75;;
18997;SDS011;9632;51.018;4.284;2023-03-21T10:03:24;14.98;;;4.38;;
18997;SDS011;9632;51.018;4.284;2023-03-21T10:05:55;10.85;;;3.83;;
18997;SDS011;9632;51.018;4.284;2023-03-21T10:08:26;9.23;;;3.35;;
18997;SDS011;9632;51.018;4.284;2023-03-21T10:11:00;9.73;;;3.53;;
18997;SDS011;9632;51.018;4.284;2023-03-21T10:13:43;10.73;;;3.63;;
18997;SDS011;9632;51.018;4.284;2023-03-21T10:18:53;13.63;;;3.75;;
18997;SDS011;9632;51.018;4.284;2023-03-21T10:21:23;12.77;;;3.67;;
18997;SDS011;9632;51.018;4.284;2023-03-21T10:23:51;11.55;;;3.30;;
18997;SDS011;9632;51.018;4.284;2023-03-21T10:26:20;9.07;;;3.10;;
18997;SDS011;9632;51.018;4.284;2023-03-21T10:28:50;11.52;;;3.45;;
18997;SDS011;9632;51.018;4.284;2023-03-21T10:31:17;12.02;;;3.88;;
18997;SDS011;9632;51.018;4.284;2023-03-21T10:33:47;14.50;;;3.67;;
18997;SDS011;9632;51.018;4.284;2023-03-21T10:36:18;12.07;;;4.03;;
18997;SDS011;9632;51.018;4.284;2023-03-21T10:38:51;11.50;;;3.17;;
18997;SDS011;9632;51.018;4.284;2023-03-21T10:41:19;10.93;;;3.38;;
18997;SDS011;9632;51.018;4.284;2023-03-21T10:43:45;9.50;;;3.25;;
18997;SDS011;9632;51.018;4.284;2023-03-21T10:46:27;10.45;;;3.47;;
18997;SDS011;9632;51.018;4.284;2023-03-21T10:48:53;15.63;;;3.55;;
18997;SDS011;9632;51.018;4.284;2023-03-21T10:51:20;12.27;;;3.38;;
18997;SDS011;9632;51.018;4.284;2023-03-21T10:53:51;12.13;;;3.00;;
18997;SDS011;9632;51.018;4.284;2023-03-21T10:56:30;12.57;;;3.42;;
18997;SDS011;9632;51.018;4.284;2023-03-21T10:59:00;12.63;;;3.45;;
18997;SDS011;9632;51.018;4.284;2023-03-21T11:01:33;19.23;;;3.55;;
18997;SDS011;9632;51.018;4.284;2023-03-21T11:04:06;8.15;;;2.78;;
18997;SDS011;9632;51.018;4.284;2023-03-21T11:06:37;9.10;;;3.03;;
18997;SDS011;9632;51.018;4.284;2023-03-21T11:09:07;10.88;;;3.80;;
18997;SDS011;9632;51.018;4.284;2023-03-21T11:11:40;10.07;;;3.17;;
18997;SDS011;9632;51.018;4.284;2023-03-21T11:14:34;11.43;;;2.95;;
18997;SDS011;9632;51.018;4.284;2023-03-21T11:22:25;7.70;;;2.58;;
18997;SDS011;9632;51.018;4.284;2023-03-21T11:25:00;9.32;;;3.05;;
18997;SDS011;9632;51.018;4.284;2023-03-21T11:27:30;11.95;;;3.10;;
18997;SDS011;9632;51.018;4.284;2023-03-21T11:29:57;12.23;;;3.35;;
18997;SDS011;9632;51.018;4.284;2023-03-21T11:32:34;10.07;;;2.90;;
18997;SDS011;9632;51.018;4.284;2023-03-21T11:42:50;9.32;;;3.20;;
18997;SDS011;9632;51.018;4.284;2023-03-21T11:45:19;9.70;;;3.30;;
18997;SDS011;9632;51.018;4.284;2023-03-21T11:47:46;9.98;;;3.08;;
18997;SDS011;9632;51.018;4.284;2023-03-21T11:50:19;10.95;;;3.30;;
18997;SDS011;9632;51.018;4.284;2023-03-21T11:52:50;7.38;;;2.90;;
18997;SDS011;9632;51.018;4.284;2023-03-21T11:55:39;8.50;;;3.05;;
18997;SDS011;9632;51.018;4.284;2023-03-21T12:20:02;7.07;;;3.00;;
18997;SDS011;9632;51.018;4.284;2023-03-21T12:25:38;8.40;;;2.80;;
18997;SDS011;9632;51.018;4.284;2023-03-21T12:28:26;6.60;;;2.85;;
18997;SDS011;9632;51.018;4.284;2023-03-21T12:37:08;6.90;;;2.60;;
18997;SDS011;9632;51.018;4.284;2023-03-21T12:39:41;8.77;;;3.05;;
18997;SDS011;9632;51.018;4.284;2023-03-21T12:44:46;7.38;;;2.90;;
18997;SDS011;9632;51.018;4.284;2023-03-21T12:47:25;6.85;;;2.70;;
18997;SDS011;9632;51.018;4.284;2023-03-21T12:50:00;10.25;;;3.03;;
18997;SDS011;9632;51.018;4.284;2023-03-21T12:52:34;5.97;;;2.63;;
18997;SDS011;9632;51.018;4.284;2023-03-21T12:55:20;12.48;;;2.63;;
18997;SDS011;9632;51.018;4.284;2023-03-21T12:58:05;5.60;;;2.53;;
18997;SDS011;9632;51.018;4.284;2023-03-21T13:01:01;8.85;;;3.05;;
18997;SDS011;9632;51.018;4.284;2023-03-21T13:03:43;6.40;;;2.55;;
18997;SDS011;9632;51.018;4.284;2023-03-21T13:06:15;5.85;;;2.60;;
18997;SDS011;9632;51.018;4.284;2023-03-21T13:08:57;7.20;;;2.80;;
18997;SDS011;9632;51.018;4.284;2023-03-21T13:11:29;9.02;;;3.60;;
18997;SDS011;9632;51.018;4.284;2023-03-21T13:14:16;7.55;;;2.80;;
18997;SDS011;9632;51.018;4.284;2023-03-21T13:16:49;8.43;;;2.92;;
18997;SDS011;9632;51.018;4.284;2023-03-21T13:19:49;9.23;;;3.17;;
18997;SDS011;9632;51.018;4.284;2023-03-21T13:22:26;7.60;;;3.08;;
18997;SDS011;9632;51.018;4.284;2023-03-21T13:25:03;6.15;;;2.80;;
18997;SDS011;9632;51.018;4.284;2023-03-21T13:28:04;8.30;;;3.30;;
18997;SDS011;9632;51.018;4.284;2023-03-21T13:30:30;9.73;;;3.53;;
18997;SDS011;9632;51.018;4.284;2023-03-21T13:33:06;10.50;;;3.92;;
18997;SDS011;9632;51.018;4.284;2023-03-21T13:35:40;8.55;;;3.55;;
18997;SDS011;9632;51.018;4.284;2023-03-21T13:41:16;9.27;;;3.72;;
18997;SDS011;9632;51.018;4.284;2023-03-21T13:43:51;13.00;;;3.85;;
18997;SDS011;9632;51.018;4.284;2023-03-21T13:53:59;8.85;;;3.30;;
18997;SDS011;9632;51.018;4.284;2023-03-21T13:59:09;12.40;;;4.28;;
18997;SDS011;9632;51.018;4.284;2023-03-21T14:01:39;7.97;;;3.75;;
18997;SDS011;9632;51.018;4.284;2023-03-21T14:04:16;13.88;;;5.03;;
18997;SDS011;9632;51.018;4.284;2023-03-21T14:09:58;8.18;;;3.83;;
18997;SDS011;9632;51.018;4.284;2023-03-21T14:12:28;11.73;;;4.93;;
18997;SDS011;9632;51.018;4.284;2023-03-21T14:14:59;14.00;;;4.25;;
18997;SDS011;9632;51.018;4.284;2023-03-21T14:17:30;10.27;;;3.85;;
18997;SDS011;9632;51.018;4.284;2023-03-21T14:20:07;11.65;;;4.20;;
18997;SDS011;9632;51.018;4.284;2023-03-21T14:22:38;10.95;;;4.43;;
18997;SDS011;9632;51.018;4.284;2023-03-21T14:25:07;12.52;;;4.82;;
18997;SDS011;9632;51.018;4.284;2023-03-21T14:27:37;10.70;;;4.45;;
18997;SDS011;9632;51.018;4.284;2023-03-21T14:30:10;10.30;;;5.40;;
18997;SDS011;9632;51.018;4.284;2023-03-21T14:32:43;12.63;;;4.57;;
18997;SDS011;9632;51.018;4.284;2023-03-21T14:35:11;12.18;;;4.72;;
18997;SDS011;9632;51.018;4.284;2023-03-21T14:37:39;9.73;;;4.75;;
18997;SDS011;9632;51.018;4.284;2023-03-21T14:40:07;11.77;;;5.10;;
18997;SDS011;9632;51.018;4.284;2023-03-21T14:42:49;15.25;;;5.13;;
18997;SDS011;9632;51.018;4.284;2023-03-21T14:47:53;12.80;;;5.03;;
18997;SDS011;9632;51.018;4.284;2023-03-21T14:50:51;9.23;;;4.47;;
18997;SDS011;9632;51.018;4.284;2023-03-21T14:56:06;7.45;;;4.40;;
18997;SDS011;9632;51.018;4.284;2023-03-21T14:58:46;8.77;;;4.25;;
18997;SDS011;9632;51.018;4.284;2023-03-21T15:01:15;11.70;;;4.93;;
18997;SDS011;9632;51.018;4.284;2023-03-21T15:03:52;14.88;;;5.00;;
18997;SDS011;9632;51.018;4.284;2023-03-21T15:06:18;11.02;;;5.13;;
18997;SDS011;9632;51.018;4.284;2023-03-21T15:09:01;8.60;;;4.72;;
18997;SDS011;9632;51.018;4.284;2023-03-21T15:11:36;10.82;;;4.90;;
18997;SDS011;9632;51.018;4.284;2023-03-21T15:14:04;9.57;;;4.40;;
18997;SDS011;9632;51.018;4.284;2023-03-21T15:16:31;9.50;;;4.55;;
18997;SDS011;9632;51.018;4.284;2023-03-21T15:18:58;9.68;;;5.18;;
18997;SDS011;9632;51.018;4.284;2023-03-21T15:21:26;10.13;;;4.65;;
18997;SDS011;9632;51.018;4.284;2023-03-21T15:24:03;10.00;;;4.80;;
18997;SDS011;9632;51.018;4.284;2023-03-21T15:26:37;10.15;;;4.40;;
18997;SDS011;9632;51.018;4.284;2023-03-21T15:29:04;9.18;;;4.40;;
18997;SDS011;9632;51.018;4.284;2023-03-21T15:31:33;10.98;;;4.40;;
18997;SDS011;9632;51.018;4.284;2023-03-21T15:34:03;6.68;;;4.22;;
18997;SDS011;9632;51.018;4.284;2023-03-21T15:39:04;7.78;;;4.70;;
18997;SDS011;9632;51.018;4.284;2023-03-21T15:41:32;9.27;;;4.43;;
18997;SDS011;9632;51.018;4.284;2023-03-21T15:46:40;9.02;;;4.05;;
18997;SDS011;9632;51.018;4.284;2023-03-21T15:54:48;7.65;;;3.97;;
18997;SDS011;9632;51.018;4.284;2023-03-21T15:57:23;9.05;;;4.00;;
18997;SDS011;9632;51.018;4.284;2023-03-21T16:00:39;8.57;;;4.00;;
18997;SDS011;9632;51.018;4.284;2023-03-21T16:03:07;6.30;;;3.95;;
18997;SDS011;9632;51.018;4.284;2023-03-21T16:05:40;11.60;;;5.90;;
18997;SDS011;9632;51.018;4.284;2023-03-21T16:08:19;11.63;;;5.10;;
18997;SDS011;9632;51.018;4.284;2023-03-21T16:10:51;9.10;;;4.75;;
18997;SDS011;9632;51.018;4.284;2023-03-21T16:13:16;9.57;;;4.20;;
18997;SDS011;9632;51.018;4.284;2023-03-21T16:15:42;9.18;;;4.10;;
18997;SDS011;9632;51.018;4.284;2023-03-21T16:18:11;8.32;;;4.03;;
18997;SDS011;9632;51.018;4.284;2023-03-21T16:20:40;9.82;;;4.20;;
18997;SDS011;9632;51.018;4.284;2023-03-21T16:23:11;13.27;;;4.78;;
18997;SDS011;9632;51.018;4.284;2023-03-21T16:25:37;10.02;;;4.35;;
18997;SDS011;9632;51.018;4.284;2023-03-21T16:28:05;8.38;;;3.90;;
18997;SDS011;9632;51.018;4.284;2023-03-21T16:30:37;8.20;;;4.65;;
18997;SDS011;9632;51.018;4.284;2023-03-21T16:33:03;9.20;;;5.13;;
18997;SDS011;9632;51.018;4.284;2023-03-21T16:35:28;7.45;;;4.28;;
18997;SDS011;9632;51.018;4.284;2023-03-21T16:37:54;11.63;;;4.28;;
18997;SDS011;9632;51.018;4.284;2023-03-21T16:40:24;8.80;;;4.28;;
18997;SDS011;9632;51.018;4.284;2023-03-21T16:42:54;7.85;;;4.32;;
18997;SDS011;9632;51.018;4.284;2023-03-21T16:45:19;9.65;;;4.63;;
18997;SDS011;9632;51.018;4.284;2023-03-21T16:47:47;6.95;;;3.70;;
18997;SDS011;9632;51.018;4.284;2023-03-21T16:50:17;7.82;;;4.10;;
18997;SDS011;9632;51.018;4.284;2023-03-21T16:52:43;7.80;;;4.53;;
18997;SDS011;9632;51.018;4.284;2023-03-21T16:55:09;7.70;;;4.22;;
18997;SDS011;9632;51.018;4.284;2023-03-21T16:57:35;7.05;;;3.70;;
18997;SDS011;9632;51.018;4.284;2023-03-21T17:00:01;7.80;;;4.10;;
18997;SDS011;9632;51.018;4.284;2023-03-21T17:02:31;6.53;;;3.60;;
18997;SDS011;9632;51.018;4.284;2023-03-21T17:04:56;12.40;;;6.63;;
18997;SDS011;9632;51.018;4.284;2023-03-21T17:07:22;17.05;;;9.65;;
18997;SDS011;9632;51.018;4.284;2023-03-21T17:09:48;9.40;;;3.58;;
18997;SDS011;9632;51.018;4.284;2023-03-21T17:12:14;8.13;;;3.53;;
18997;SDS011;9632;51.018;4.284;2023-03-21T17:14:41;9.07;;;3.83;;